Time;durP1;ratioP1;P1;durP2;ratioP2;P2;SDS_P1;SDS_P2;PMS_P1;PMS_P2;Temp;Humidity;BMP_temperature;BMP_pressure;BME280_temperature;BME280_humidity;BME280_pressure;Samples;Min_cycle;Max_cycle;Signal;HPM_P1;HPM_P2
2021/03/25 00:01:24;;;;;;;30.10;17.70;;;;;;;6.64;75.79;100662.28;5035287;28;20053;-75
2021/03/25 00:03:52;;;;;;;35.03;17.98;;;;;;;6.59;75.86;100666.06;5035423;28;20049;-76
2021/03/25 00:06:19;;;;;;;36.97;17.90;;;;;;;6.61;75.70;100662.44;5034890;28;20052;-74
2021/03/25 00:08:46;;;;;;;32.42;18.33;;;;;;;6.54;75.79;100654.72;5034297;28;20068;-76
2021/03/25 00:11:12;;;;;;;38.20;19.23;;;;;;;6.39;76.05;100639.31;5035098;28;20049;-76
2021/03/25 00:13:39;;;;;;;33.53;17.92;;;;;;;6.51;75.72;100661.00;5035330;28;20092;-77
2021/03/25 00:16:07;;;;;;;35.03;19.23;;;;;;;6.40;76.18;100653.44;5033886;28;20067;-76
2021/03/25 00:18:33;;;;;;;37.20;18.08;;;;;;;6.36;76.78;100644.72;5034993;28;20140;-76
2021/03/25 00:20:59;;;;;;;37.47;18.80;;;;;;;6.27;77.07;100649.50;5034201;28;20347;-78
2021/03/25 00:23:25;;;;;;;35.00;18.70;;;;;;;6.16;76.47;100639.28;5033847;28;20056;-74
2021/03/25 00:25:52;;;;;;;36.67;18.20;;;;;;;6.23;76.37;100643.44;5035098;28;20100;-75
2021/03/25 00:28:18;;;;;;;28.90;17.23;;;;;;;6.20;76.88;100644.41;5034880;28;20050;-76
2021/03/25 00:30:45;;;;;;;32.33;17.75;;;;;;;6.15;76.36;100634.91;5033526;28;20386;-75
2021/03/25 00:33:15;;;;;;;35.05;18.23;;;;;;;6.13;76.13;100632.28;5035069;28;20058;-73
2021/03/25 00:35:42;;;;;;;35.63;18.52;;;;;;;6.19;76.72;100639.16;5036721;28;20057;-76
2021/03/25 00:38:09;;;;;;;37.72;18.48;;;;;;;6.15;76.77;100633.09;5038213;28;20053;-75
2021/03/25 00:40:43;;;;;;;36.50;20.80;;;;;;;6.17;77.18;100638.34;5039330;28;20057;-74
2021/03/25 00:43:10;;;;;;;36.83;19.98;;;;;;;6.16;77.18;100637.47;5040321;28;20045;-75
2021/03/25 00:45:43;;;;;;;40.67;18.52;;;;;;;6.11;77.12;100634.97;5035751;28;20052;-76
2021/03/25 00:48:11;;;;;;;35.75;18.95;;;;;;;6.12;76.73;100638.50;5034882;28;20050;-76
2021/03/25 00:50:44;;;;;;;34.60;19.50;;;;;;;6.13;76.98;100629.63;5033655;28;20140;-73
2021/03/25 00:53:15;;;;;;;34.15;18.33;;;;;;;6.07;77.15;100629.84;5034580;28;20458;-76
2021/03/25 00:55:42;;;;;;;32.65;18.15;;;;;;;6.00;77.10;100628.31;5034648;28;20057;-75
2021/03/25 00:58:08;;;;;;;35.80;18.55;;;;;;;5.98;77.60;100631.00;5034777;28;20064;-74
2021/03/25 01:00:38;;;;;;;35.55;20.13;;;;;;;5.98;77.63;100636.28;5049607;28;20052;-76
2021/03/25 01:03:06;;;;;;;35.70;18.02;;;;;;;5.93;77.46;100630.28;5054337;28;20057;-76
2021/03/25 01:05:34;;;;;;;39.05;20.50;;;;;;;5.87;78.06;100627.88;5054964;28;20053;-77
2021/03/25 01:08:00;;;;;;;41.78;20.08;;;;;;;5.90;77.72;100619.81;5058001;28;20045;-76
2021/03/25 01:10:36;;;;;;;37.42;20.45;;;;;;;5.86;77.68;100627.00;5058180;28;20048;-75
2021/03/25 01:13:11;;;;;;;42.03;19.05;;;;;;;5.84;77.85;100621.72;5057813;28;20044;-75
2021/03/25 01:15:38;;;;;;;36.70;17.52;;;;;;;5.75;77.89;100621.19;5056990;28;20053;-76
2021/03/25 01:18:07;;;;;;;37.33;18.70;;;;;;;5.71;78.17;100625.72;5058234;28;20052;-75
2021/03/25 01:20:37;;;;;;;33.97;18.27;;;;;;;5.71;77.97;100623.06;5057828;28;20075;-75
2021/03/25 01:23:04;;;;;;;37.15;19.35;;;;;;;5.62;77.57;100624.22;5057966;28;20053;-76
2021/03/25 01:25:32;;;;;;;36.70;19.45;;;;;;;5.57;78.63;100623.53;5058163;28;20071;-75
2021/03/25 01:28:01;;;;;;;35.90;17.95;;;;;;;5.59;78.10;100616.41;5057707;28;20049;-75
2021/03/25 01:30:30;;;;;;;35.42;20.13;;;;;;;5.62;78.26;100607.50;5057631;28;20060;-75
2021/03/25 01:32:57;;;;;;;34.05;17.63;;;;;;;5.55;78.30;100601.50;5058001;28;20126;-77
2021/03/25 01:35:25;;;;;;;39.80;19.80;;;;;;;5.53;78.35;100601.59;5056905;28;20052;-74
2021/03/25 01:37:52;;;;;;;36.70;19.55;;;;;;;5.54;78.10;100599.78;5057802;28;20049;-77
2021/03/25 01:40:20;;;;;;;36.35;18.83;;;;;;;5.54;78.51;100595.38;5056465;28;20049;-75
2021/03/25 01:42:48;;;;;;;41.58;18.83;;;;;;;5.53;78.25;100588.34;5057395;28;20455;-75
2021/03/25 01:45:29;;;;;;;37.65;19.70;;;;;;;5.51;78.64;100595.44;5056747;28;20068;-75
2021/03/25 01:48:00;;;;;;;39.63;21.23;;;;;;;5.46;78.74;100589.47;5057409;28;20126;-77
2021/03/25 01:50:27;;;;;;;41.65;20.58;;;;;;;5.44;78.66;100585.97;5056276;28;20131;-77
2021/03/25 01:53:20;;;;;;;40.70;19.80;;;;;;;5.51;78.58;100595.44;5056438;28;20056;-76
2021/03/25 01:56:15;;;;;;;36.67;19.15;;;;;;;5.46;78.58;100586.81;5057384;28;20053;-76
2021/03/25 01:59:00;;;;;;;36.05;18.45;;;;;;;5.48;78.56;100578.81;4986718;28;20047;-77
2021/03/25 02:01:29;;;;;;;35.50;20.33;;;;;;;5.43;78.69;100576.31;5038194;28;20057;-75
2021/03/25 02:04:05;;;;;;;34.40;18.70;;;;;;;5.50;78.64;100582.28;5038289;28;20393;-75
2021/03/25 02:06:59;;;;;;;35.70;19.02;;;;;;;5.45;78.86;100579.78;5036084;28;20493;-75
2021/03/25 02:09:37;;;;;;;41.75;19.45;;;;;;;5.46;78.90;100581.53;5037422;28;20060;-77
2021/03/25 02:12:24;;;;;;;36.95;17.73;;;;;;;5.44;78.55;100586.88;5037344;28;20057;-76
2021/03/25 02:14:59;;;;;;;37.47;18.65;;;;;;;5.57;78.52;100592.59;5035941;28;20057;-74
2021/03/25 02:17:35;;;;;;;36.83;18.95;;;;;;;5.77;78.49;100591.06;5035160;28;20443;-75
2021/03/25 02:20:17;;;;;;;36.30;19.38;;;;;;;5.67;78.39;100582.56;5037372;28;20060;-77
2021/03/25 02:23:25;;;;;;;38.92;17.92;;;;;;;5.65;78.60;100580.88;5035893;28;20430;-74
2021/03/25 02:26:19;;;;;;;37.67;16.88;;;;;;;5.68;77.74;100594.03;5037127;28;20119;-75
2021/03/25 02:29:00;;;;;;;38.53;18.23;;;;;;;5.60;78.24;100590.78;5036864;28;20068;-77
2021/03/25 02:31:29;;;;;;;;;;;;;;;5.67;78.26;100603.75;5037285;28;20081;-77
2021/03/25 02:34:01;;;;;;;33.85;17.05;;;;;;;5.64;78.13;100600.34;5035863;28;19944;-77
2021/03/25 02:36:36;;;;;;;35.10;18.55;;;;;;;5.48;78.29;100595.56;5036623;28;20046;-75
2021/03/25 02:39:11;;;;;;;34.45;18.38;;;;;;;5.55;78.59;100602.41;5036896;28;20341;-77
2021/03/25 02:41:44;;;;;;;40.65;19.60;;;;;;;5.58;78.27;100607.56;5036543;28;20053;-76
2021/03/25 02:44:11;;;;;;;39.53;18.75;;;;;;;5.48;78.69;100610.56;5036412;28;20426;-75
2021/03/25 02:46:53;;;;;;;37.95;19.17;;;;;;;5.54;78.69;100610.38;5035329;28;20374;-74
2021/03/25 02:49:24;;;;;;;36.75;18.58;;;;;;;5.48;78.57;100616.75;5036666;28;20045;-78
2021/03/25 02:51:59;;;;;;;;;;;;;;;5.42;78.95;100603.72;5036898;28;20045;-73
2021/03/25 02:54:25;;;;;;;39.80;18.05;;;;;;;5.44;78.78;100597.44;5036222;28;20006;-75
2021/03/25 02:56:55;;;;;;;39.15;18.30;;;;;;;5.37;79.10;100592.41;5035338;28;20374;-76
2021/03/25 02:59:29;;;;;;;42.47;20.40;;;;;;;5.28;79.22;100585.63;5041475;28;20041;-75
2021/03/25 03:02:00;;;;;;;35.25;19.50;;;;;;;5.42;79.15;100590.47;5057632;28;20095;-77
2021/03/25 03:04:29;;;;;;;41.92;19.02;;;;;;;5.36;79.37;100598.59;5061141;28;20059;-73
2021/03/25 03:07:19;;;;;;;40.03;20.15;;;;;;;5.33;79.94;100594.28;5066032;28;20430;-74
2021/03/25 03:09:49;;;;;;;36.33;20.30;;;;;;;5.28;79.09;100593.56;5064941;28;20079;-75
2021/03/25 03:12:39;;;;;;;39.33;19.45;;;;;;;5.27;79.28;100582.13;5057291;28;20131;-76
2021/03/25 03:15:24;;;;;;;35.05;19.38;;;;;;;5.35;79.23;100594.25;5056416;28;20061;-76
2021/03/25 03:18:07;;;;;;;45.15;23.98;;;;;;;5.26;79.72;100588.34;5056024;28;20057;-75
2021/03/25 03:20:57;;;;;;;42.03;21.98;;;;;;;5.21;80.06;100592.03;5056056;28;20053;-74
2021/03/25 03:23:30;;;;;;;55.55;25.63;;;;;;;5.24;79.97;100579.56;5054949;28;20060;-75
2021/03/25 03:26:09;;;;;;;52.22;26.10;;;;;;;5.24;80.40;100587.50;5055528;28;20049;-75
2021/03/25 03:28:47;;;;;;;61.30;27.60;;;;;;;5.37;80.44;100595.03;5055350;28;20049;-76
2021/03/25 03:31:21;;;;;;;69.18;34.60;;;;;;;5.46;80.79;100592.13;5055700;28;20044;-76
2021/03/25 03:33:53;;;;;;;60.78;30.30;;;;;;;5.43;81.00;100606.31;5055306;28;20053;-74
2021/03/25 03:36:23;;;;;;;64.65;32.58;;;;;;;5.47;80.99;100601.78;5054721;28;20048;-78
2021/03/25 03:38:56;;;;;;;73.10;35.92;;;;;;;5.51;81.34;100594.59;5055545;28;20063;-76
2021/03/25 03:41:32;;;;;;;78.70;36.95;;;;;;;5.61;81.31;100608.41;5055544;28;20060;-74
2021/03/25 03:44:03;;;;;;;69.75;35.50;;;;;;;5.60;81.29;100599.59;5054365;28;20382;-76
2021/03/25 03:46:30;;;;;;;75.20;37.92;;;;;;;5.62;80.88;100607.50;5055038;28;20045;-76
2021/03/25 03:49:05;;;;;;;71.47;35.35;;;;;;;5.67;80.73;100614.34;5055257;28;20430;-76
2021/03/25 03:51:38;;;;;;;68.47;36.42;;;;;;;5.70;81.33;100619.56;5055078;28;20064;-75
2021/03/25 03:54:05;;;;;;;71.03;37.35;;;;;;;5.70;81.20;100616.03;5054294;28;20049;-75
2021/03/25 03:57:03;;;;;;;74.05;39.47;;;;;;;5.73;81.38;100617.72;5053893;28;20434;-75
2021/03/25 04:00:10;;;;;;;90.18;41.95;;;;;;;5.79;81.11;100612.22;5039326;28;20056;-74
2021/03/25 04:02:53;;;;;;;76.63;39.58;;;;;;;5.73;81.22;100621.25;5035051;28;20054;-75
2021/03/25 04:05:27;;;;;;;82.95;42.10;;;;;;;5.82;81.14;100622.69;5033952;28;20431;-74
2021/03/25 04:08:10;;;;;;;81.85;42.85;;;;;;;5.82;81.61;100620.06;5035275;28;20049;-76
2021/03/25 04:10:46;;;;;;;77.53;42.55;;;;;;;5.72;81.39;100608.91;5035095;28;20116;-76
2021/03/25 04:13:24;;;;;;;85.55;44.35;;;;;;;5.79;81.34;100622.81;5035110;28;20569;-75
2021/03/25 04:15:53;;;;;;;83.05;42.85;;;;;;;5.83;81.52;100620.00;5034203;28;20045;-75
2021/03/25 04:18:37;;;;;;;79.35;39.38;;;;;;;5.89;81.20;100621.56;5035098;28;20133;-74
2021/03/25 04:21:10;;;;;;;77.55;41.22;;;;;;;5.91;81.09;100625.06;5033802;28;20501;-73
2021/03/25 04:23:40;;;;;;;76.40;39.63;;;;;;;5.81;80.78;100613.91;5034994;28;20385;-76
2021/03/25 04:26:07;;;;;;;73.72;38.42;;;;;;;5.70;81.52;100610.75;5035054;28;20103;-75
2021/03/25 04:28:38;;;;;;;71.30;39.70;;;;;;;5.68;81.11;100612.59;5035081;28;20045;-77
2021/03/25 04:31:07;;;;;;;82.57;41.95;;;;;;;5.68;81.53;100617.88;5035138;28;20053;-76
2021/03/25 04:33:37;;;;;;;81.03;40.17;;;;;;;5.68;81.75;100608.13;5034893;28;20108;-75
2021/03/25 04:36:07;;;;;;;76.30;40.72;;;;;;;5.68;81.63;100615.22;5034683;28;20442;-76
2021/03/25 04:38:36;;;;;;;74.32;41.38;;;;;;;5.62;81.61;100613.63;5034666;28;20634;-74
2021/03/25 04:41:07;;;;;;;80.80;41.20;;;;;;;5.68;81.56;100626.69;5034892;28;20057;-74
2021/03/25 04:43:41;;;;;;;81.82;40.67;;;;;;;5.68;81.96;100607.28;5039016;28;20087;-75
2021/03/25 04:46:38;;;;;;;79.97;44.00;;;;;;;5.66;82.07;100625.03;5038904;28;20093;-76
2021/03/25 04:49:13;;;;;;;79.05;41.03;;;;;;;5.66;81.84;100625.03;5037904;28;20058;-75
2021/03/25 04:51:39;;;;;;;73.45;40.40;;;;;;;5.61;82.23;100613.72;5038569;28;20342;-74
2021/03/25 04:54:16;;;;;;;82.78;42.17;;;;;;;5.64;82.30;100629.47;5038725;28;20142;-75
2021/03/25 04:56:43;;;;;;;79.20;40.55;;;;;;;5.65;82.01;100631.22;5037441;28;20045;-75
2021/03/25 04:59:09;;;;;;;85.43;41.45;;;;;;;5.59;82.45;100627.00;5041590;28;20492;-75
2021/03/25 05:01:36;;;;;;;72.80;42.60;;;;;;;5.59;82.68;100640.22;5058501;28;20059;-76
2021/03/25 05:04:05;;;;;;;76.10;41.22;;;;;;;5.64;82.32;100640.06;5058593;28;20332;-74
2021/03/25 05:06:41;;;;;;;80.45;40.97;;;;;;;5.64;82.02;100629.47;5058437;28;20045;-77
2021/03/25 05:09:12;;;;;;;82.90;42.58;;;;;;;5.58;82.65;100634.06;5058409;28;20053;-74
2021/03/25 05:11:39;;;;;;;82.63;42.22;;;;;;;5.65;82.69;100644.44;5058438;28;20056;-75
2021/03/25 05:14:12;;;;;;;75.90;40.78;;;;;;;5.67;82.50;100642.63;5058475;28;20119;-74
2021/03/25 05:16:52;;;;;;;78.72;39.92;;;;;;;5.67;82.23;100627.59;5058322;28;20181;-75
2021/03/25 05:19:44;;;;;;;74.72;38.42;;;;;;;5.73;82.51;100631.84;5057982;28;20389;-76
2021/03/25 05:22:23;;;;;;;76.35;40.70;;;;;;;5.80;82.35;100633.38;5054332;28;20493;-76
2021/03/25 05:25:05;;;;;;;68.47;36.90;;;;;;;5.91;82.31;100642.72;5057212;28;20071;-74
2021/03/25 05:27:37;;;;;;;70.45;40.50;;;;;;;5.95;82.09;100636.41;5057850;28;20438;-74
2021/03/25 05:30:35;;;;;;;79.45;39.20;;;;;;;5.97;82.39;100629.25;5057780;28;20106;-74
2021/03/25 05:33:05;;;;;;;77.03;40.17;;;;;;;6.07;81.99;100645.75;5056205;28;20065;-75
2021/03/25 05:35:39;;;;;;;79.75;39.92;;;;;;;6.03;82.06;100621.16;5059771;28;20064;-74
2021/03/25 05:38:06;;;;;;;77.40;41.10;;;;;;;6.12;81.81;100633.22;5060237;28;20041;-75
2021/03/25 05:40:36;;;;;;;76.78;40.15;;;;;;;6.21;82.18;100643.47;5060166;28;20049;-73
2021/03/25 05:43:21;;;;;;;74.18;40.03;;;;;;;6.31;81.72;100649.31;5058075;28;20065;-76
2021/03/25 05:45:53;;;;;;;73.15;40.05;;;;;;;6.33;81.71;100639.53;5057961;28;20056;-73
2021/03/25 05:48:22;;;;;;;73.38;40.08;;;;;;;6.43;81.45;100636.56;5057908;28;20056;-78
2021/03/25 05:50:56;;;;;;;81.35;40.50;;;;;;;6.39;81.79;100641.97;5057820;28;20071;-73
2021/03/25 05:53:47;;;;;;;74.97;39.72;;;;;;;6.42;81.47;100641.00;5055990;28;20053;-76
2021/03/25 05:56:28;;;;;;;72.70;38.92;;;;;;;6.48;81.37;100645.22;5057074;28;20075;-75
2021/03/25 05:58:58;;;;;;;70.88;39.42;;;;;;;6.56;80.78;100647.56;5056346;28;20056;-75
2021/03/25 06:01:24;;;;;;;71.80;39.72;;;;;;;6.55;80.85;100646.72;5037236;28;20123;-75
2021/03/25 06:03:58;;;;;;;78.10;40.65;;;;;;;6.48;80.78;100646.06;5037373;28;20057;-75
2021/03/25 06:06:46;;;;;;;76.63;38.90;;;;;;;6.54;80.50;100662.69;5036971;28;20092;-75
2021/03/25 06:09:38;;;;;;;72.85;38.42;;;;;;;6.49;80.64;100657.56;5037104;28;20354;-76
2021/03/25 06:12:23;;;;;;;74.57;38.78;;;;;;;6.39;81.22;100652.56;5034954;28;20065;-76
2021/03/25 06:15:04;;;;;;;76.45;38.67;;;;;;;6.56;80.68;100668.78;5036062;28;20053;-76
2021/03/25 06:17:40;;;;;;;75.03;37.03;;;;;;;6.55;80.98;100672.38;5037152;28;20045;-76
2021/03/25 06:20:26;;;;;;;77.43;38.70;;;;;;;6.54;81.10;100658.22;5036943;28;20057;-76
2021/03/25 06:23:18;;;;;;;73.05;38.47;;;;;;;6.69;80.47;100663.94;5037199;28;20081;-76
2021/03/25 06:26:17;;;;;;;71.88;38.45;;;;;;;6.71;80.00;100662.06;5037241;28;20056;-78
2021/03/25 06:28:51;;;;;;;69.55;38.30;;;;;;;6.78;80.11;100669.75;5037049;28;20397;-76
2021/03/25 06:31:38;;;;;;;71.30;38.65;;;;;;;6.82;80.18;100670.50;5037860;28;20057;-75
2021/03/25 06:34:22;;;;;;;72.97;38.67;;;;;;;6.81;80.67;100671.41;5037406;28;20107;-75
2021/03/25 06:37:12;;;;;;;77.75;40.28;;;;;;;6.79;81.47;100665.31;5036982;28;20049;-75
2021/03/25 06:40:02;;;;;;;82.70;39.78;;;;;;;6.84;81.18;100673.97;5054959;28;20056;-78
2021/03/25 06:42:43;;;;;;;72.90;36.83;;;;;;;6.82;81.26;100665.22;5057131;28;20393;-76
2021/03/25 06:45:24;;;;;;;73.90;36.92;;;;;;;6.85;81.27;100672.16;5056331;28;20045;-75
2021/03/25 06:48:19;;;;;;;71.00;36.65;;;;;;;6.88;81.30;100672.06;5060558;28;20104;-77
2021/03/25 06:50:50;;;;;;;73.15;39.15;;;;;;;7.03;80.74;100663.50;5056814;28;20045;-74
2021/03/25 06:53:28;;;;;;;66.57;36.80;;;;;;;7.10;79.91;100668.59;5075175;28;20059;-77
2021/03/25 06:56:11;;;;;;;75.43;39.30;;;;;;;7.11;80.14;100665.00;5076336;28;20373;-75
2021/03/25 06:58:42;;;;;;;75.55;40.65;;;;;;;7.20;79.55;100657.56;5077140;28;20349;-75
2021/03/25 07:01:29;;;;;;;78.13;39.38;;;;;;;7.25;79.39;100654.72;5077631;28;20052;-74
2021/03/25 07:03:59;;;;;;;72.60;38.20;;;;;;;7.24;79.20;100662.75;5070973;28;20057;-76
2021/03/25 07:06:29;;;;;;;64.53;37.92;;;;;;;7.20;79.91;100665.50;5055136;28;20377;-79
2021/03/25 07:08:56;;;;;;;75.07;40.55;;;;;;;7.26;79.30;100675.06;5055760;28;20072;-74
2021/03/25 07:11:27;;;;;;;72.13;39.78;;;;;;;7.32;78.56;100665.97;5054973;28;20060;-73
2021/03/25 07:14:02;;;;;;;70.50;39.53;;;;;;;7.26;78.87;100661.78;5055841;28;20045;-75
2021/03/25 07:16:31;;;;;;;79.97;40.40;;;;;;;7.37;78.23;100677.28;5055898;28;20075;-77
2021/03/25 07:19:03;;;;;;;76.38;39.80;;;;;;;7.42;77.60;100677.94;5055819;28;20053;-83
2021/03/25 07:21:35;;;;;;;73.88;39.92;;;;;;;7.43;77.91;100676.16;5054821;28;20049;-79
2021/03/25 07:24:22;;;;;;;73.32;39.78;;;;;;;7.43;77.87;100679.69;5055552;28;20508;-77
2021/03/25 07:26:56;;;;;;;73.25;41.28;;;;;;;7.51;78.07;100683.84;5055577;28;20060;-78
2021/03/25 07:29:29;;;;;;;73.88;42.47;;;;;;;7.39;77.63;100680.75;5055548;28;20068;-78
2021/03/25 07:32:04;;;;;;;82.20;42.83;;;;;;;7.51;77.35;100694.47;5054133;28;20059;-78
2021/03/25 07:34:51;;;;;;;77.35;42.28;;;;;;;7.58;76.98;100694.13;5055270;28;20462;-77
2021/03/25 07:37:36;;;;;;;73.53;40.88;;;;;;;7.72;76.74;100695.38;5055638;28;20041;-76
2021/03/25 07:40:23;;;;;;;73.47;39.97;;;;;;;7.75;76.52;100696.13;5055460;28;20422;-77
2021/03/25 07:42:54;;;;;;;81.55;39.33;;;;;;;7.79;76.25;100685.38;5054329;28;20109;-74
2021/03/25 07:45:31;;;;;;;77.35;42.22;;;;;;;7.95;76.15;100697.09;5054491;28;20049;-77
2021/03/25 07:48:15;;;;;;;76.18;42.58;;;;;;;8.05;75.74;100697.59;5051459;28;20041;-77
2021/03/25 07:50:43;;;;;;;78.03;40.13;;;;;;;8.15;75.30;100690.09;5054328;28;20403;-76
2021/03/25 07:53:36;;;;;;;73.00;40.28;;;;;;;8.17;75.57;100693.53;5053688;28;20472;-77
2021/03/25 07:56:14;;;;;;;78.63;40.08;;;;;;;8.18;76.20;100699.72;5050923;28;20049;-76
2021/03/25 07:58:49;;;;;;;65.97;38.55;;;;;;;8.21;76.07;100697.81;5055090;28;20434;-76
2021/03/25 08:01:22;;;;;;;70.05;38.75;;;;;;;8.17;76.72;100685.56;5053891;28;20450;-77
2021/03/25 08:03:53;;;;;;;60.05;35.35;;;;;;;8.30;75.91;100683.25;5055209;28;20107;-75
2021/03/25 08:06:20;;;;;;;58.30;33.40;;;;;;;8.35;75.89;100683.94;5037428;28;20128;-76
2021/03/25 08:09:08;;;;;;;65.80;32.15;;;;;;;8.40;75.89;100684.56;5053914;28;20048;-76
2021/03/25 08:11:58;;;;;;;65.15;31.90;;;;;;;8.51;75.84;100685.91;5052229;28;20053;-75
2021/03/25 08:14:28;;;;;;;60.30;32.47;;;;;;;8.61;75.50;100692.56;5065994;28;20049;-75
2021/03/25 08:17:01;;;;;;;69.65;35.00;;;;;;;8.60;75.91;100690.84;5061853;28;20053;-76
2021/03/25 08:19:43;;;;;;;58.88;35.08;;;;;;;8.77;75.58;100707.88;5055504;28;20076;-74
2021/03/25 08:22:21;;;;;;;65.88;35.45;;;;;;;8.85;75.84;100704.84;5054578;28;20049;-75
2021/03/25 08:25:21;;;;;;;65.90;35.05;;;;;;;8.86;75.77;100710.09;5054258;28;20159;-74
2021/03/25 08:28:06;;;;;;;59.47;32.47;;;;;;;8.97;75.74;100714.94;5035508;28;20060;-77
2021/03/25 08:30:52;;;;;;;60.17;32.45;;;;;;;8.98;75.12;100710.50;5035982;28;20291;-77
2021/03/25 08:33:31;;;;;;;53.83;28.92;;;;;;;8.95;74.71;100701.69;5040547;28;20044;-78
2021/03/25 08:36:34;;;;;;;55.45;29.83;;;;;;;8.90;75.12;100703.72;5055178;28;20084;-78
2021/03/25 08:39:19;;;;;;;49.95;26.83;;;;;;;8.87;74.67;100713.66;5047728;28;20053;-74
2021/03/25 08:42:03;;;;;;;50.17;26.58;;;;;;;8.88;74.75;100704.72;5051590;28;20059;-76
2021/03/25 08:44:41;;;;;;;52.70;25.50;;;;;;;9.03;74.36;100703.13;5046099;28;20049;-76
2021/03/25 08:47:35;;;;;;;56.97;26.60;;;;;;;9.12;74.17;100685.88;5054834;28;20044;-78
2021/03/25 08:50:04;;;;;;;51.38;26.25;;;;;;;9.30;73.90;100706.34;5054912;28;20362;-79
2021/03/25 08:52:38;;;;;;;50.00;25.25;;;;;;;9.27;74.10;100708.28;5053967;28;20049;-79
2021/03/25 08:55:10;;;;;;;53.10;26.13;;;;;;;9.42;73.44;100715.53;5054932;28;20459;-78
2021/03/25 08:57:38;;;;;;;51.85;25.25;;;;;;;9.63;73.04;100718.13;5054949;28;20045;-75
2021/03/25 09:00:10;;;;;;;50.70;26.90;;;;;;;9.48;72.85;100719.75;5053670;28;20448;-76
2021/03/25 09:02:45;;;;;;;50.92;25.35;;;;;;;9.58;72.86;100721.00;5053543;28;20477;-76
2021/03/25 09:05:28;;;;;;;53.08;26.58;;;;;;;9.63;73.06;100721.66;5054310;28;20056;-79
2021/03/25 09:07:57;;;;;;;49.17;25.83;;;;;;;9.65;73.08;100718.94;5054722;28;20418;-79
2021/03/25 09:10:29;;;;;;;55.83;29.27;;;;;;;9.69;73.16;100716.97;5053927;28;20430;-77
2021/03/25 09:12:56;;;;;;;56.83;28.13;;;;;;;9.70;72.99;100716.03;5054748;28;20063;-79
2021/03/25 09:15:26;;;;;;;52.67;27.17;;;;;;;9.62;72.94;100714.59;5054823;28;20342;-78
2021/03/25 09:17:57;;;;;;;55.25;26.73;;;;;;;9.80;72.67;100721.78;5053307;28;20139;-78
2021/03/25 09:20:31;;;;;;;53.30;26.42;;;;;;;9.83;72.46;100713.63;5053416;28;20061;-76
2021/03/25 09:22:59;;;;;;;57.42;26.92;;;;;;;9.75;72.56;100740.69;5055198;28;20091;-77
2021/03/25 09:25:25;;;;;;;58.90;27.70;;;;;;;9.62;73.02;100732.38;5053461;28;20439;-75
2021/03/25 09:28:22;;;;;;;55.10;26.73;;;;;;;9.64;72.54;100728.72;5056693;28;20049;-76
2021/03/25 09:31:12;;;;;;;53.53;27.70;;;;;;;9.82;72.45;100733.22;5057744;28;20064;-78
2021/03/25 09:33:56;;;;;;;51.17;27.38;;;;;;;9.82;71.92;100723.44;5058368;28;20076;-75
2021/03/25 09:36:32;;;;;;;55.50;26.38;;;;;;;9.96;72.31;100740.56;5056712;28;20139;-77
2021/03/25 09:38:58;;;;;;;43.03;26.50;;;;;;;10.01;71.48;100739.38;5057492;28;20049;-75
2021/03/25 09:41:24;;;;;;;53.25;26.95;;;;;;;10.11;71.04;100737.13;5057869;28;20041;-76
2021/03/25 09:44:08;;;;;;;59.60;27.05;;;;;;;10.09;71.31;100740.81;5057008;28;20152;-76
2021/03/25 09:46:53;;;;;;;58.42;27.63;;;;;;;10.07;71.56;100742.69;5062815;28;20449;-75
2021/03/25 09:49:29;;;;;;;59.42;29.98;;;;;;;9.99;71.30;100727.06;5066072;28;20048;-75
2021/03/25 09:52:13;;;;;;;48.05;26.25;;;;;;;10.09;71.60;100731.03;5057485;28;20331;-75
2021/03/25 09:54:45;;;;;;;57.20;27.83;;;;;;;10.19;71.59;100726.94;5056209;28;20488;-76
2021/03/25 09:57:36;;;;;;;48.05;28.35;;;;;;;10.31;71.29;100724.59;5057611;28;20053;-75
2021/03/25 10:00:12;;;;;;;47.83;25.98;;;;;;;10.36;70.92;100732.34;5056800;28;20049;-75
2021/03/25 10:02:42;;;;;;;46.75;26.35;;;;;;;10.35;70.89;100728.81;5049119;28;20061;-75
2021/03/25 10:05:16;;;;;;;48.17;25.98;;;;;;;10.28;70.47;100732.75;5057331;28;20053;-75
2021/03/25 10:07:43;;;;;;;49.83;24.65;;;;;;;10.31;70.30;100725.44;5058166;28;20071;-76
2021/03/25 10:10:37;;;;;;;43.00;23.17;;;;;;;10.36;70.31;100727.91;5059963;28;20076;-76
2021/03/25 10:13:04;;;;;;;52.92;24.63;;;;;;;10.31;70.58;100725.44;5060003;28;20045;-76
2021/03/25 10:15:30;;;;;;;48.20;24.45;;;;;;;10.37;70.01;100718.06;5059174;28;20136;-77
2021/03/25 10:18:24;;;;;;;48.35;24.92;;;;;;;10.63;69.66;100721.22;5056713;28;20049;-76
2021/03/25 10:20:50;;;;;;;51.53;23.90;;;;;;;10.80;69.02;100720.34;5047640;28;20045;-77
2021/03/25 10:23:27;;;;;;;42.25;20.58;;;;;;;10.78;68.60;100709.75;5066265;28;20076;-75
2021/03/25 10:26:15;;;;;;;38.03;19.83;;;;;;;10.98;67.98;100708.69;5084072;28;20074;-77
2021/03/25 10:29:03;;;;;;;33.85;17.45;;;;;;;11.18;67.41;100713.88;5081117;28;20045;-75
2021/03/25 10:31:38;;;;;;;38.60;17.75;;;;;;;11.26;67.23;100717.00;5079910;28;20056;-75
2021/03/25 10:34:13;;;;;;;27.52;14.50;;;;;;;11.18;65.46;100703.19;5082379;28;20079;-77
2021/03/25 10:36:57;;;;;;;30.83;14.02;;;;;;;11.43;65.32;100708.03;5071514;28;20049;-77
2021/03/25 10:39:31;;;;;;;24.15;11.20;;;;;;;11.67;63.59;100702.25;5062516;28;20060;-73
2021/03/25 10:42:29;;;;;;;27.70;12.40;;;;;;;11.84;62.53;100698.63;5060278;28;20053;-74
2021/03/25 10:45:12;;;;;;;20.75;10.00;;;;;;;11.92;61.30;100690.13;5056524;28;20059;-76
2021/03/25 10:47:39;;;;;;;20.90;8.98;;;;;;;12.15;61.16;100687.97;5056291;28;20435;-75
2021/03/25 10:50:06;;;;;;;19.10;9.40;;;;;;;12.33;60.58;100699.38;5060522;28;20057;-75
2021/03/25 10:52:39;;;;;;;19.25;9.98;;;;;;;12.16;59.62;100711.09;5058514;28;20049;-76
2021/03/25 10:55:45;;;;;;;20.35;11.15;;;;;;;12.08;60.24;100704.38;5058489;28;20060;-75
2021/03/25 10:58:35;;;;;;;18.13;10.48;;;;;;;12.29;60.52;100701.38;5057883;28;20057;-74
2021/03/25 11:01:22;;;;;;;23.17;10.97;;;;;;;12.12;60.93;100705.06;5055211;28;20135;-75
2021/03/25 11:03:50;;;;;;;13.05;6.75;;;;;;;11.95;59.23;100714.91;5055447;28;20049;-75
2021/03/25 11:06:24;;;;;;;18.23;8.00;;;;;;;12.25;59.19;100712.38;5056344;28;20053;-73
2021/03/25 11:08:52;;;;;;;17.13;7.53;;;;;;;12.71;58.82;100703.38;5059088;28;20052;-75
2021/03/25 11:11:24;;;;;;;18.73;9.70;;;;;;;12.97;57.57;100700.91;5056931;28;20076;-76
2021/03/25 11:14:03;;;;;;;18.58;10.10;;;;;;;13.00;58.58;100704.25;5060945;28;20060;-75
2021/03/25 11:16:31;;;;;;;26.40;14.18;;;;;;;12.61;60.03;100701.28;5060608;28;20057;-72
2021/03/25 11:19:18;;;;;;;24.67;14.90;;;;;;;12.66;61.03;100705.47;5054359;28;20047;-75
2021/03/25 11:21:45;;;;;;;27.27;15.07;;;;;;;13.07;60.08;100702.03;5049860;28;20053;-73
2021/03/25 11:24:20;;;;;;;26.48;14.30;;;;;;;13.03;60.39;100700.53;5055766;28;20056;-75
2021/03/25 11:26:47;;;;;;;24.02;14.38;;;;;;;13.55;58.98;100701.72;5055300;28;20385;-73
2021/03/25 11:29:17;;;;;;;27.48;14.05;;;;;;;13.64;57.89;100702.06;5054910;28;20430;-75
2021/03/25 11:31:44;;;;;;;28.08;14.48;;;;;;;13.35;59.47;100702.97;5038278;28;20053;-74
2021/03/25 11:34:29;;;;;;;32.03;14.43;;;;;;;13.00;60.24;100673.91;5053079;28;20048;-76
2021/03/25 11:36:57;;;;;;;27.33;15.18;;;;;;;13.00;61.45;100690.84;5054436;28;20064;-74
2021/03/25 11:39:27;;;;;;;30.77;17.30;;;;;;;12.67;61.85;100688.44;5038376;28;20057;-76
2021/03/25 11:41:57;;;;;;;35.05;16.95;;;;;;;12.50;62.86;100688.50;5055486;28;20449;-75
2021/03/25 11:44:56;;;;;;;26.05;16.60;;;;;;;12.79;62.34;100695.72;5055828;28;20052;-77
2021/03/25 11:47:22;;;;;;;29.42;15.65;;;;;;;12.93;62.39;100686.84;5042025;28;20053;-74
2021/03/25 11:49:50;;;;;;;23.05;14.15;;;;;;;13.12;61.55;100694.56;5054358;28;20053;-77
2021/03/25 11:52:21;;;;;;;28.77;13.93;;;;;;;13.25;61.21;100677.72;5055812;28;20053;-76
2021/03/25 11:54:59;;;;;;;24.75;12.38;;;;;;;13.06;61.10;100689.59;5055068;28;20060;-77
2021/03/25 11:57:35;;;;;;;18.35;11.13;;;;;;;12.74;61.40;100687.97;5054800;28;20075;-76